createdAt,value
2022-10-30T00:00:07.117Z,19.30
2022-10-30T00:01:13.411Z,19.30
2022-10-30T00:02:15.016Z,19.28
2022-10-30T00:03:16.753Z,19.27
2022-10-30T00:04:18.342Z,19.27
2022-10-30T00:05:20.892Z,19.28
2022-10-30T00:06:22.412Z,19.26
2022-10-30T00:07:23.894Z,19.26
2022-10-30T00:08:25.846Z,19.21
2022-10-30T00:09:27.288Z,19.21
2022-10-30T00:10:28.748Z,19.22
2022-10-30T00:11:30.304Z,19.22
2022-10-30T00:12:31.747Z,19.22
2022-10-30T00:13:33.187Z,19.23
2022-10-30T00:14:34.705Z,19.24
2022-10-30T00:15:36.314Z,19.24
2022-10-30T00:16:37.794Z,19.25
2022-10-30T00:17:39.340Z,19.25
2022-10-30T00:18:42.267Z,19.25
2022-10-30T00:19:43.852Z,19.25
2022-10-30T00:20:45.338Z,19.24
2022-10-30T00:21:46.815Z,19.25
2022-10-30T00:22:48.280Z,19.25
2022-10-30T00:23:50.360Z,19.24
2022-10-30T00:24:51.834Z,19.24
2022-10-30T00:25:53.291Z,19.23
2022-10-30T00:26:54.825Z,19.23
2022-10-30T00:27:56.426Z,19.21
2022-10-30T00:28:57.901Z,19.22
2022-10-30T00:29:59.372Z,19.15
2022-10-30T00:31:01.343Z,19.21
2022-10-30T00:32:04.138Z,19.22
2022-10-30T00:33:05.670Z,19.20
2022-10-30T00:34:08.320Z,19.20
2022-10-30T00:35:10.856Z,19.19
2022-10-30T00:36:13.685Z,19.20
2022-10-30T00:37:17.376Z,19.18
2022-10-30T00:38:18.823Z,19.16
2022-10-30T00:39:20.408Z,19.08
2022-10-30T00:40:21.891Z,19.14
2022-10-30T00:41:23.582Z,19.14
2022-10-30T00:42:28.440Z,19.11
2022-10-30T00:43:39.861Z,19.10
2022-10-30T00:44:41.422Z,19.10
2022-10-30T00:45:42.897Z,19.11
2022-10-30T00:46:44.413Z,19.10
2022-10-30T00:47:52.769Z,19.09
2022-10-30T00:48:58.275Z,19.08
2022-10-30T00:50:07.979Z,19.00
2022-10-30T00:51:09.600Z,19.07
2022-10-30T00:52:11.089Z,19.07
2022-10-30T00:53:13.853Z,19.05
2022-10-30T00:54:15.904Z,19.04
2022-10-30T00:55:18.457Z,19.03
2022-10-30T00:56:20.472Z,19.03
2022-10-30T00:57:22.333Z,19.03
2022-10-30T00:58:29.166Z,19.03
2022-10-30T00:59:30.858Z,19.04
2022-10-30T01:00:32.354Z,19.02
2022-10-30T01:01:35.286Z,19.00
2022-10-30T01:02:37.304Z,18.99
2022-10-30T01:03:39.650Z,18.99
2022-10-30T01:04:41.154Z,18.97
2022-10-30T01:05:42.923Z,18.97
2022-10-30T01:06:45.459Z,18.97
2022-10-30T01:07:47.006Z,18.95
2022-10-30T01:08:48.595Z,18.93
2022-10-30T01:09:50.278Z,18.94
2022-10-30T01:10:52.022Z,18.95
2022-10-30T01:11:53.625Z,18.96
2022-10-30T01:12:55.144Z,18.96
2022-10-30T01:13:57.568Z,18.95
2022-10-30T01:14:59.055Z,18.94
2022-10-30T01:16:06.105Z,18.95
2022-10-30T01:17:19.705Z,18.95
2022-10-30T01:18:23.942Z,18.96
2022-10-30T01:19:38.632Z,18.95
2022-10-30T01:20:57.618Z,18.95
2022-10-30T01:22:11.188Z,18.95
2022-10-30T01:23:12.854Z,18.92
2022-10-30T01:24:33.876Z,18.90
2022-10-30T01:25:38.556Z,18.93
2022-10-30T01:26:41.306Z,18.91
2022-10-30T01:27:42.789Z,18.93
2022-10-30T01:28:55.369Z,18.92
2022-10-30T01:30:15.253Z,18.94
2022-10-30T01:31:21.023Z,18.93
2022-10-30T01:32:35.020Z,18.95
2022-10-30T01:33:43.717Z,18.94
2022-10-30T01:34:45.267Z,18.94
2022-10-30T01:35:54.034Z,18.94
2022-10-30T01:37:10.612Z,18.95
2022-10-30T01:38:30.922Z,18.96
2022-10-30T01:39:35.719Z,18.97
2022-10-30T01:40:37.228Z,18.97
2022-10-30T01:41:39.657Z,18.98
2022-10-30T01:42:53.942Z,18.98
2022-10-30T01:44:02.533Z,19.01
2022-10-30T01:45:04.785Z,18.99
2022-10-30T01:46:18.513Z,19.00
2022-10-30T01:47:23.051Z,19.02
2022-10-30T01:48:27.433Z,19.02
2022-10-30T01:49:31.797Z,19.04
2022-10-30T01:50:33.948Z,19.04
2022-10-30T01:52:07.819Z,19.04
2022-10-30T01:53:22.986Z,19.03
2022-10-30T01:54:30.440Z,19.05
2022-10-30T01:55:50.380Z,19.04
2022-10-30T01:56:54.744Z,19.05
2022-10-30T01:58:04.252Z,19.06
2022-10-30T01:59:08.752Z,19.07
2022-10-30T02:00:11.290Z,19.07
2022-10-30T02:01:15.709Z,19.09
2022-10-30T02:02:17.597Z,19.09
2022-10-30T02:03:19.381Z,19.11
2022-10-30T02:04:21.069Z,19.10
2022-10-30T02:05:36.685Z,19.11
2022-10-30T02:06:38.222Z,19.12
2022-10-30T02:07:39.873Z,19.11
2022-10-30T02:08:43.377Z,19.13
2022-10-30T02:09:45.090Z,19.13
2022-10-30T02:10:48.733Z,19.12
2022-10-30T02:11:50.448Z,19.14
2022-10-30T02:12:52.308Z,19.14
2022-10-30T02:13:54.322Z,19.15
2022-10-30T02:14:56.875Z,19.15
2022-10-30T02:15:58.435Z,19.16
2022-10-30T02:17:00.784Z,19.17
2022-10-30T02:18:02.472Z,19.15
2022-10-30T02:19:04.555Z,19.16
2022-10-30T02:20:07.005Z,19.16
2022-10-30T02:21:09.037Z,19.18
2022-10-30T02:22:12.594Z,19.18
2022-10-30T02:23:18.898Z,19.18
2022-10-30T02:24:20.489Z,19.18
2022-10-30T02:25:22.037Z,19.19
2022-10-30T02:26:23.593Z,19.18
2022-10-30T02:27:25.130Z,19.14
2022-10-30T02:28:26.623Z,19.13
2022-10-30T02:29:28.184Z,19.14
2022-10-30T02:30:29.805Z,19.13
2022-10-30T02:31:31.416Z,19.11
2022-10-30T02:32:33.041Z,19.10
2022-10-30T02:33:34.651Z,19.11
2022-10-30T02:34:36.868Z,19.10
2022-10-30T02:35:38.390Z,19.09
2022-10-30T02:36:39.991Z,19.09
2022-10-30T02:37:41.498Z,19.06
2022-10-30T02:38:44.132Z,19.06
2022-10-30T02:39:45.660Z,19.07
2022-10-30T02:40:49.822Z,19.07
2022-10-30T02:41:51.337Z,19.05
2022-10-30T02:42:53.477Z,19.05
2022-10-30T02:43:54.949Z,19.05
2022-10-30T02:44:56.545Z,19.05
2022-10-30T02:45:58.166Z,19.05
2022-10-30T02:47:00.119Z,19.05
2022-10-30T02:48:02.669Z,19.05
2022-10-30T02:49:05.559Z,19.02
2022-10-30T02:50:07.559Z,18.97
2022-10-30T02:51:12.229Z,19.03
2022-10-30T02:52:14.416Z,19.04
2022-10-30T02:53:16.908Z,19.04
2022-10-30T02:54:19.625Z,19.04
2022-10-30T02:55:21.300Z,19.05
2022-10-30T02:56:23.755Z,19.04
2022-10-30T02:57:25.262Z,19.04
2022-10-30T02:58:26.763Z,19.04
2022-10-30T02:59:28.260Z,19.04
2022-10-30T03:00:29.798Z,19.05
2022-10-30T03:01:31.571Z,19.06
2022-10-30T03:02:34.508Z,19.07
2022-10-30T03:03:36.275Z,19.06
2022-10-30T03:04:37.880Z,19.05
2022-10-30T03:05:39.425Z,19.05
2022-10-30T03:06:41.031Z,19.05
2022-10-30T03:07:42.506Z,19.06
2022-10-30T03:08:44.093Z,19.06
2022-10-30T03:09:45.688Z,19.06
2022-10-30T03:10:47.277Z,19.06
2022-10-30T03:11:48.832Z,19.07
2022-10-30T03:12:50.391Z,19.05
2022-10-30T03:13:51.906Z,19.06
2022-10-30T03:14:53.449Z,19.06
2022-10-30T03:15:59.455Z,18.99
2022-10-30T03:17:00.956Z,19.07
2022-10-30T03:18:02.557Z,19.07
2022-10-30T03:19:04.207Z,19.09
2022-10-30T03:20:08.057Z,19.08
2022-10-30T03:21:10.096Z,19.09
2022-10-30T03:22:11.899Z,19.09
2022-10-30T03:23:13.386Z,19.08
2022-10-30T03:24:15.009Z,19.08
2022-10-30T03:25:16.630Z,19.09
2022-10-30T03:26:18.686Z,19.09
2022-10-30T03:27:24.828Z,19.09
2022-10-30T03:28:27.513Z,19.08
2022-10-30T03:29:29.849Z,19.08
2022-10-30T03:30:31.469Z,19.07
2022-10-30T03:31:36.119Z,19.06
2022-10-30T03:32:50.806Z,19.05
2022-10-30T03:33:52.275Z,19.04
2022-10-30T03:34:53.847Z,19.04
2022-10-30T03:35:55.824Z,19.02
2022-10-30T03:36:57.401Z,19.03
2022-10-30T03:37:58.854Z,19.01
2022-10-30T03:39:00.386Z,19.01
2022-10-30T03:40:02.651Z,19.00
2022-10-30T03:41:04.597Z,18.99
2022-10-30T03:42:06.161Z,18.98
2022-10-30T03:43:07.748Z,18.97
2022-10-30T03:44:09.228Z,18.96
2022-10-30T03:45:10.897Z,18.96
2022-10-30T03:46:12.569Z,18.95
2022-10-30T03:47:14.183Z,18.94
2022-10-30T03:48:18.744Z,18.94
2022-10-30T03:49:20.340Z,18.92
2022-10-30T03:50:21.866Z,18.91
2022-10-30T03:51:23.422Z,18.89
2022-10-30T03:52:25.286Z,18.88
2022-10-30T03:53:28.439Z,18.87
2022-10-30T03:54:30.123Z,18.87
2022-10-30T03:55:31.698Z,18.86
2022-10-30T03:56:33.526Z,18.84
2022-10-30T03:57:36.890Z,18.83
2022-10-30T03:58:45.852Z,18.83
2022-10-30T03:59:49.385Z,18.79
2022-10-30T04:01:13.695Z,18.78
2022-10-30T04:03:21.002Z,18.76
2022-10-30T04:04:23.106Z,18.76
2022-10-30T04:05:25.211Z,18.74
2022-10-30T04:06:28.735Z,18.74
2022-10-30T04:07:31.110Z,18.73
2022-10-30T04:08:33.478Z,18.73
2022-10-30T04:09:35.222Z,18.73
2022-10-30T04:10:37.262Z,18.71
2022-10-30T04:11:44.952Z,18.71
2022-10-30T04:12:47.970Z,18.72
2022-10-30T04:13:49.724Z,18.71
2022-10-30T04:14:54.326Z,18.70
2022-10-30T04:15:57.862Z,18.70
2022-10-30T04:17:00.623Z,18.69
2022-10-30T04:18:02.552Z,18.68
2022-10-30T04:19:05.270Z,18.66
2022-10-30T04:20:07.298Z,18.65
2022-10-30T04:21:08.830Z,18.65
2022-10-30T04:22:11.975Z,18.63
2022-10-30T04:23:14.498Z,18.63
2022-10-30T04:24:18.753Z,18.61
2022-10-30T04:25:23.180Z,18.61
2022-10-30T04:26:25.635Z,18.60
2022-10-30T04:27:27.081Z,18.58
2022-10-30T04:28:28.672Z,18.59
2022-10-30T04:29:30.218Z,18.58
2022-10-30T04:30:35.343Z,18.57
2022-10-30T04:31:37.011Z,18.56
2022-10-30T04:32:50.211Z,18.54
2022-10-30T04:33:53.091Z,18.54
2022-10-30T04:34:55.922Z,18.52
2022-10-30T04:35:57.612Z,18.49
2022-10-30T04:36:59.420Z,18.48
2022-10-30T04:38:01.672Z,18.47
2022-10-30T04:39:03.882Z,18.47
2022-10-30T04:40:07.350Z,18.46
2022-10-30T04:41:19.133Z,18.45
2022-10-30T04:42:35.160Z,18.43
2022-10-30T04:43:36.838Z,18.41
2022-10-30T04:44:38.341Z,18.41
2022-10-30T04:45:40.044Z,18.39
2022-10-30T04:46:41.658Z,18.38
2022-10-30T04:47:45.073Z,18.38
2022-10-30T04:48:46.706Z,18.38
2022-10-30T04:49:48.868Z,18.37
2022-10-30T04:50:50.954Z,18.36
2022-10-30T04:51:59.168Z,18.35
2022-10-30T04:53:06.851Z,18.34
2022-10-30T04:54:08.348Z,18.33
2022-10-30T04:55:11.851Z,18.31
2022-10-30T04:56:14.024Z,18.29
2022-10-30T04:57:15.536Z,18.26
2022-10-30T04:58:18.058Z,18.24
2022-10-30T04:59:24.125Z,18.21
2022-10-30T05:00:27.717Z,18.19
2022-10-30T05:01:33.547Z,18.17
2022-10-30T05:02:39.582Z,18.14
2022-10-30T05:03:41.399Z,18.13
2022-10-30T05:04:48.450Z,18.10
2022-10-30T05:05:56.409Z,18.11
2022-10-30T05:06:58.245Z,18.10
2022-10-30T05:08:00.414Z,18.06
2022-10-30T05:09:03.735Z,18.06
2022-10-30T05:10:14.633Z,18.05
2022-10-30T05:11:16.229Z,18.03
2022-10-30T05:12:19.578Z,18.02
2022-10-30T05:13:27.470Z,18.01
2022-10-30T05:14:32.935Z,18.00
2022-10-30T05:15:34.473Z,17.97
2022-10-30T05:16:35.990Z,17.97
2022-10-30T05:17:39.252Z,17.96
2022-10-30T05:18:40.819Z,17.96
2022-10-30T05:19:42.362Z,17.96
2022-10-30T05:20:43.840Z,17.93
2022-10-30T05:21:45.411Z,17.94
2022-10-30T05:22:54.370Z,17.93
2022-10-30T05:23:55.925Z,17.91
2022-10-30T05:24:58.275Z,17.85
2022-10-30T05:26:00.262Z,17.91
2022-10-30T05:27:02.057Z,17.91
2022-10-30T05:28:05.280Z,17.91
2022-10-30T05:29:13.234Z,17.90
2022-10-30T05:30:14.744Z,17.89
2022-10-30T05:31:16.385Z,17.87
2022-10-30T05:32:40.807Z,17.87
2022-10-30T05:33:42.377Z,17.81
2022-10-30T05:34:43.860Z,17.82
2022-10-30T05:35:46.254Z,17.78
2022-10-30T05:36:47.758Z,17.77
2022-10-30T05:37:49.897Z,17.73
2022-10-30T05:38:52.019Z,17.69
2022-10-30T05:40:13.748Z,17.65
2022-10-30T05:41:15.369Z,17.66
2022-10-30T05:42:16.860Z,17.65
2022-10-30T05:43:19.767Z,17.67
2022-10-30T05:44:40.520Z,17.67
2022-10-30T05:45:44.024Z,17.65
2022-10-30T05:46:45.660Z,17.65
2022-10-30T05:48:00.971Z,17.65
2022-10-30T05:49:06.433Z,17.65
2022-10-30T05:50:08.303Z,17.64
2022-10-30T05:51:10.612Z,17.66
2022-10-30T05:52:15.297Z,17.63
2022-10-30T05:53:17.069Z,17.65
2022-10-30T05:54:19.129Z,17.64
2022-10-30T05:55:43.644Z,17.63
2022-10-30T05:56:48.614Z,17.62
2022-10-30T05:57:50.718Z,17.62
2022-10-30T05:58:52.552Z,17.62
2022-10-30T05:59:54.061Z,17.62
2022-10-30T06:00:55.531Z,17.60
2022-10-30T06:02:10.945Z,17.58
2022-10-30T06:03:12.727Z,17.56
2022-10-30T06:04:16.085Z,17.56
2022-10-30T06:05:17.934Z,17.54
2022-10-30T06:06:23.411Z,17.52
2022-10-30T06:07:25.194Z,17.51
2022-10-30T06:08:27.148Z,17.50
2022-10-30T06:09:31.651Z,17.48
2022-10-30T06:10:53.672Z,17.46
2022-10-30T06:11:58.653Z,17.46
2022-10-30T06:13:26.773Z,17.45
2022-10-30T06:14:36.021Z,17.43
2022-10-30T06:15:38.818Z,17.41
2022-10-30T06:16:40.279Z,17.39
2022-10-30T06:18:02.371Z,17.37
2022-10-30T06:19:17.647Z,17.35
2022-10-30T06:20:21.874Z,17.33
2022-10-30T06:21:26.145Z,17.32
2022-10-30T06:22:59.415Z,17.31
2022-10-30T06:24:08.285Z,17.31
2022-10-30T06:25:21.180Z,17.29
2022-10-30T06:26:34.054Z,17.28
2022-10-30T06:27:41.147Z,17.28
2022-10-30T06:28:42.688Z,17.27
2022-10-30T06:29:46.088Z,17.26
2022-10-30T06:30:47.681Z,17.24
2022-10-30T06:31:49.301Z,17.24
2022-10-30T06:33:01.843Z,17.25
2022-10-30T06:34:05.398Z,17.26
2022-10-30T06:35:09.150Z,17.24
2022-10-30T06:36:10.870Z,17.22
2022-10-30T06:37:12.448Z,17.22
2022-10-30T06:38:15.323Z,17.22
2022-10-30T06:39:16.826Z,17.23
2022-10-30T06:40:31.311Z,17.23
2022-10-30T06:41:53.035Z,17.24
2022-10-30T06:43:15.891Z,17.21
2022-10-30T06:44:23.233Z,17.20
2022-10-30T06:45:25.100Z,17.20
2022-10-30T06:46:30.511Z,17.20
2022-10-30T06:47:35.522Z,17.22
2022-10-30T06:48:37.588Z,17.21
2022-10-30T06:49:39.043Z,17.21
2022-10-30T06:50:40.663Z,17.21
2022-10-30T06:51:42.697Z,17.20
2022-10-30T06:52:44.303Z,17.21
2022-10-30T06:53:45.829Z,17.21
2022-10-30T06:55:22.513Z,17.20
2022-10-30T06:56:34.497Z,17.20
2022-10-30T06:57:53.729Z,17.19
2022-10-30T06:59:13.495Z,17.20
2022-10-30T07:00:27.954Z,17.21
2022-10-30T07:02:11.245Z,17.24
2022-10-30T07:03:26.655Z,17.25
2022-10-30T07:04:28.519Z,17.27
2022-10-30T07:05:33.282Z,17.29
2022-10-30T07:06:35.748Z,17.31
2022-10-30T07:07:37.192Z,17.32
2022-10-30T07:08:38.694Z,17.34
2022-10-30T07:09:41.426Z,17.37
2022-10-30T07:10:42.889Z,17.39
2022-10-30T07:11:57.050Z,17.40
2022-10-30T07:13:17.474Z,17.43
2022-10-30T07:14:32.273Z,17.44
2022-10-30T07:15:54.153Z,17.46
2022-10-30T07:16:59.984Z,17.49
2022-10-30T07:18:03.789Z,17.51
2022-10-30T07:19:08.084Z,17.54
2022-10-30T07:20:09.881Z,17.55
2022-10-30T07:21:11.356Z,17.57
2022-10-30T07:22:14.076Z,17.58
2022-10-30T07:23:19.161Z,17.61
2022-10-30T07:24:20.745Z,17.63
2022-10-30T07:25:40.776Z,17.64
2022-10-30T07:26:56.069Z,17.63
2022-10-30T07:28:10.859Z,17.62
2022-10-30T07:29:27.297Z,17.65
2022-10-30T07:30:58.491Z,17.67
2022-10-30T07:32:20.434Z,17.71
2022-10-30T07:33:42.801Z,17.72
2022-10-30T07:34:54.457Z,17.76
2022-10-30T07:36:05.548Z,17.79
2022-10-30T07:37:33.235Z,17.84
2022-10-30T07:38:41.118Z,17.87
2022-10-30T07:40:07.460Z,17.92
2022-10-30T07:41:33.324Z,17.98
2022-10-30T07:42:58.230Z,18.06
2022-10-30T07:44:25.335Z,18.15
2022-10-30T07:45:47.984Z,18.23
2022-10-30T07:47:07.559Z,18.34
2022-10-30T07:48:27.612Z,18.45
2022-10-30T07:49:40.674Z,18.54
2022-10-30T07:50:43.285Z,18.66
2022-10-30T07:51:44.767Z,18.76
2022-10-30T07:52:48.329Z,18.84
2022-10-30T07:53:53.462Z,18.92
2022-10-30T07:54:56.885Z,18.93
2022-10-30T07:56:33.216Z,19.05
2022-10-30T07:58:10.258Z,19.23
2022-10-30T07:59:35.115Z,19.39
2022-10-30T08:00:55.393Z,19.53
2022-10-30T08:02:04.430Z,19.63
2022-10-30T08:03:15.309Z,19.72
2022-10-30T08:04:31.919Z,19.82
2022-10-30T08:05:41.471Z,19.92
2022-10-30T08:06:46.482Z,19.96
2022-10-30T08:07:48.253Z,20.02
2022-10-30T08:08:49.873Z,20.10
2022-10-30T08:10:00.873Z,20.15
2022-10-30T08:11:02.328Z,20.23
2022-10-30T08:12:05.071Z,20.35
2022-10-30T08:13:07.014Z,20.43
2022-10-30T08:14:09.206Z,20.52
2022-10-30T08:15:10.934Z,20.62
2022-10-30T08:16:12.957Z,20.71
2022-10-30T08:17:14.592Z,20.82
2022-10-30T08:18:18.051Z,20.94
2022-10-30T08:19:19.573Z,21.07
2022-10-30T08:20:23.500Z,21.10
2022-10-30T08:21:25.708Z,21.30
2022-10-30T08:22:46.610Z,21.43
2022-10-30T08:23:48.093Z,21.58
2022-10-30T08:24:51.794Z,21.74
2022-10-30T08:25:53.522Z,21.85
2022-10-30T08:26:56.977Z,22.03
2022-10-30T08:28:01.885Z,22.18
2022-10-30T08:29:07.239Z,22.35
2022-10-30T08:30:08.893Z,22.43
2022-10-30T08:31:10.460Z,22.53
2022-10-30T08:32:30.496Z,22.67
2022-10-30T08:34:04.449Z,22.86
2022-10-30T08:35:24.682Z,22.95
2022-10-30T08:36:26.380Z,23.10
2022-10-30T08:37:27.858Z,23.25
2022-10-30T08:38:29.454Z,23.31
2022-10-30T08:39:57.262Z,23.45
2022-10-30T08:41:10.171Z,23.57
2022-10-30T08:42:18.602Z,23.74
2022-10-30T08:43:20.694Z,23.87
2022-10-30T08:44:22.313Z,23.99
2022-10-30T08:45:46.871Z,24.12
2022-10-30T08:46:49.705Z,24.17
2022-10-30T08:47:57.256Z,24.30
2022-10-30T08:49:01.500Z,24.26
2022-10-30T08:50:04.515Z,24.17
2022-10-30T08:51:07.234Z,24.21
2022-10-30T08:52:17.376Z,24.15
2022-10-30T08:53:23.570Z,24.17
2022-10-30T08:54:26.774Z,24.29
2022-10-30T08:55:29.572Z,24.43
2022-10-30T08:56:31.668Z,24.50
2022-10-30T08:57:42.235Z,24.67
2022-10-30T08:58:44.115Z,24.82
2022-10-30T08:59:45.827Z,24.89
2022-10-30T09:01:05.517Z,24.90
2022-10-30T09:02:33.262Z,24.98
2022-10-30T09:04:03.895Z,25.06
2022-10-30T09:05:25.470Z,25.18
2022-10-30T09:06:45.576Z,25.09
2022-10-30T09:08:16.009Z,25.14
2022-10-30T09:09:35.792Z,25.13
2022-10-30T09:10:38.303Z,25.10
2022-10-30T09:11:39.979Z,25.19
2022-10-30T09:12:42.231Z,25.35
2022-10-30T09:13:43.693Z,25.46
2022-10-30T09:14:46.415Z,25.39
2022-10-30T09:15:47.979Z,25.50
2022-10-30T09:16:49.547Z,25.56
2022-10-30T09:18:03.485Z,25.75
2022-10-30T09:19:05.398Z,25.67
2022-10-30T09:20:07.000Z,25.83
2022-10-30T09:21:10.773Z,25.96
2022-10-30T09:22:18.016Z,26.12
2022-10-30T09:23:19.844Z,26.28
2022-10-30T09:24:25.586Z,26.46
2022-10-30T09:25:27.172Z,26.56
2022-10-30T09:26:49.058Z,26.66
2022-10-30T09:27:59.006Z,26.77
2022-10-30T09:29:03.961Z,26.88
2022-10-30T09:30:31.061Z,26.91
2022-10-30T09:31:35.359Z,27.04
2022-10-30T09:32:38.892Z,27.14
2022-10-30T09:33:44.534Z,27.20
2022-10-30T09:35:05.252Z,27.40
2022-10-30T09:36:11.676Z,27.58
2022-10-30T09:37:13.300Z,27.70
2022-10-30T09:38:17.426Z,27.69
2022-10-30T09:39:19.295Z,27.73
2022-10-30T09:40:29.644Z,27.50
2022-10-30T09:41:40.431Z,27.44
2022-10-30T09:42:46.031Z,27.51
2022-10-30T09:43:59.184Z,27.58
2022-10-30T09:45:27.935Z,27.50
2022-10-30T09:46:45.785Z,27.46
2022-10-30T09:47:53.264Z,27.36
2022-10-30T09:49:05.382Z,27.40
2022-10-30T09:50:14.361Z,27.48
2022-10-30T09:51:32.636Z,27.64
2022-10-30T09:52:40.318Z,27.79
2022-10-30T09:53:45.294Z,27.84
2022-10-30T09:55:01.364Z,27.88
2022-10-30T09:56:03.174Z,27.95
2022-10-30T09:57:18.082Z,27.94
2022-10-30T09:58:22.775Z,27.91
2022-10-30T09:59:34.505Z,27.94
2022-10-30T10:00:39.998Z,27.87
2022-10-30T10:01:52.200Z,27.82
2022-10-30T10:02:53.869Z,27.88
2022-10-30T10:03:58.529Z,28.02
2022-10-30T10:05:26.807Z,27.98
2022-10-30T10:07:07.730Z,28.02
2022-10-30T10:08:45.520Z,28.11
2022-10-30T10:10:06.979Z,28.03
2022-10-30T10:11:31.496Z,28.05
2022-10-30T10:12:33.073Z,28.08
2022-10-30T10:13:39.078Z,28.08
2022-10-30T10:14:44.407Z,28.12
2022-10-30T10:15:50.092Z,28.01
2022-10-30T10:16:52.261Z,28.09
2022-10-30T10:17:53.958Z,28.21
2022-10-30T10:19:04.527Z,28.24
2022-10-30T10:20:06.682Z,28.10
2022-10-30T10:21:14.293Z,28.19
2022-10-30T10:22:18.649Z,28.22
2022-10-30T10:23:34.163Z,28.12
2022-10-30T10:24:39.374Z,28.24
2022-10-30T10:25:41.481Z,28.23
2022-10-30T10:26:52.716Z,28.16
2022-10-30T10:27:54.382Z,28.32
2022-10-30T10:28:55.882Z,28.34
2022-10-30T10:29:57.456Z,28.40
2022-10-30T10:31:11.878Z,28.39
2022-10-30T10:32:28.788Z,28.38
2022-10-30T10:33:36.718Z,28.44
2022-10-30T10:34:50.221Z,28.40
2022-10-30T10:36:10.309Z,28.50
2022-10-30T10:37:22.150Z,28.53
2022-10-30T10:38:49.576Z,28.48
2022-10-30T10:39:51.192Z,28.52
2022-10-30T10:41:15.299Z,28.47
2022-10-30T10:42:16.898Z,28.56
2022-10-30T10:43:37.480Z,28.68
2022-10-30T10:44:42.458Z,28.55
2022-10-30T10:45:46.938Z,28.42
2022-10-30T10:47:16.944Z,28.45
2022-10-30T10:48:53.699Z,28.39
2022-10-30T10:49:57.290Z,28.41
2022-10-30T10:51:01.447Z,28.49
2022-10-30T10:52:04.566Z,28.41
2022-10-30T10:53:07.459Z,28.48
2022-10-30T10:54:11.384Z,28.43
2022-10-30T10:55:17.009Z,28.47
2022-10-30T10:56:18.613Z,28.50
2022-10-30T10:57:27.424Z,28.35
2022-10-30T10:58:31.915Z,28.27
2022-10-30T10:59:33.348Z,28.26
2022-10-30T11:00:34.806Z,28.24
2022-10-30T11:01:39.842Z,28.17
2022-10-30T11:02:42.293Z,27.87
2022-10-30T11:03:52.936Z,27.72
2022-10-30T11:04:54.414Z,27.65
2022-10-30T11:06:13.937Z,27.61
2022-10-30T11:07:18.338Z,27.52
2022-10-30T11:08:21.133Z,27.43
2022-10-30T11:09:23.130Z,27.26
2022-10-30T11:10:26.260Z,27.15
2022-10-30T11:11:27.759Z,27.08
2022-10-30T11:12:33.632Z,26.92
2022-10-30T11:13:38.568Z,26.77
2022-10-30T11:14:39.996Z,26.76
2022-10-30T11:15:47.286Z,26.65
2022-10-30T11:16:48.802Z,26.59
2022-10-30T11:17:56.241Z,26.47
2022-10-30T11:19:01.365Z,26.25
2022-10-30T11:20:03.330Z,26.14
2022-10-30T11:21:16.501Z,26.16
2022-10-30T11:22:36.565Z,26.22
2022-10-30T11:23:42.097Z,26.26
2022-10-30T11:24:43.533Z,26.27
2022-10-30T11:25:45.049Z,26.26
2022-10-30T11:26:46.504Z,26.26
2022-10-30T11:27:48.564Z,26.26
2022-10-30T11:28:50.009Z,26.16
2022-10-30T11:30:11.723Z,26.00
2022-10-30T11:31:20.465Z,25.95
2022-10-30T11:32:22.914Z,26.01
2022-10-30T11:33:28.589Z,25.97
2022-10-30T11:34:36.352Z,25.94
2022-10-30T11:35:41.978Z,25.96
2022-10-30T11:36:43.890Z,25.90
2022-10-30T11:37:46.075Z,25.89
2022-10-30T11:38:47.562Z,25.94
2022-10-30T11:39:54.743Z,25.93
2022-10-30T11:40:56.187Z,25.91
2022-10-30T11:42:16.629Z,25.91
2022-10-30T11:43:20.010Z,25.60
2022-10-30T11:44:22.258Z,25.65
2022-10-30T11:45:29.398Z,25.63
2022-10-30T11:46:30.859Z,25.63
2022-10-30T11:48:43.505Z,25.57
2022-10-30T11:49:50.957Z,25.52
2022-10-30T11:50:52.483Z,25.39
2022-10-30T11:51:54.093Z,25.43
2022-10-30T11:52:56.254Z,25.46
2022-10-30T11:53:57.713Z,25.41
2022-10-30T11:55:03.578Z,25.44
2022-10-30T11:56:05.350Z,25.51
2022-10-30T11:57:13.122Z,25.51
2022-10-30T11:58:21.099Z,25.59
2022-10-30T11:59:23.018Z,25.64
2022-10-30T12:00:25.668Z,25.71
2022-10-30T12:01:27.175Z,25.75
2022-10-30T12:02:29.637Z,25.76
2022-10-30T12:03:35.217Z,25.67
2022-10-30T12:04:36.665Z,25.63
2022-10-30T12:05:43.691Z,25.59
2022-10-30T12:06:46.716Z,25.49
2022-10-30T12:07:48.194Z,25.50
2022-10-30T12:08:59.132Z,25.54
2022-10-30T12:10:01.848Z,25.56
2022-10-30T12:11:04.128Z,25.59
2022-10-30T12:12:10.534Z,25.57
2022-10-30T12:13:15.414Z,25.53
2022-10-30T12:14:19.683Z,25.40
2022-10-30T12:15:21.843Z,25.37
2022-10-30T12:16:23.312Z,25.37
2022-10-30T12:17:24.763Z,25.42
2022-10-30T12:19:33.262Z,25.26
2022-10-30T12:20:36.595Z,25.30
2022-10-30T12:21:39.753Z,25.36
2022-10-30T12:22:41.775Z,25.36
2022-10-30T12:23:43.235Z,25.41
2022-10-30T12:24:44.776Z,25.46
2022-10-30T12:25:49.228Z,25.29
2022-10-30T12:26:51.315Z,25.27
2022-10-30T12:27:58.396Z,25.32
2022-10-30T12:29:00.835Z,25.36
2022-10-30T12:30:11.837Z,25.29
2022-10-30T12:31:14.141Z,25.32
2022-10-30T12:32:17.280Z,25.31
2022-10-30T12:33:26.034Z,25.27
2022-10-30T12:34:29.645Z,25.26
2022-10-30T12:35:41.139Z,25.32
2022-10-30T12:36:44.977Z,25.39
2022-10-30T12:37:46.449Z,25.32
2022-10-30T12:38:50.086Z,25.34
2022-10-30T12:40:00.423Z,25.39
2022-10-30T12:41:07.650Z,25.41
2022-10-30T12:42:11.517Z,25.22
2022-10-30T12:43:20.001Z,25.13
2022-10-30T12:44:22.250Z,25.18
2022-10-30T12:45:23.693Z,25.07
2022-10-30T12:46:27.514Z,25.09
2022-10-30T12:47:28.999Z,25.04
2022-10-30T12:48:32.270Z,25.18
2022-10-30T12:49:39.955Z,25.24
2022-10-30T12:50:49.246Z,25.32
2022-10-30T12:52:08.987Z,25.35
2022-10-30T12:53:19.582Z,25.38
2022-10-30T12:54:41.321Z,25.42
2022-10-30T12:55:46.352Z,25.42
2022-10-30T12:56:48.285Z,25.49
2022-10-30T12:57:55.720Z,25.48
2022-10-30T12:59:17.481Z,25.50
2022-10-30T13:00:19.083Z,25.52
2022-10-30T13:01:26.722Z,25.52
2022-10-30T13:02:28.857Z,25.50
2022-10-30T13:03:33.020Z,25.48
2022-10-30T13:04:37.082Z,25.50
2022-10-30T13:05:56.920Z,25.48
2022-10-30T13:07:03.068Z,25.44
2022-10-30T13:08:25.443Z,25.44
2022-10-30T13:09:28.092Z,25.46
2022-10-30T13:10:38.291Z,25.48
2022-10-30T13:11:45.781Z,25.50
2022-10-30T13:12:47.648Z,25.49
2022-10-30T13:13:49.485Z,25.51
2022-10-30T13:14:52.484Z,25.54
2022-10-30T13:15:54.684Z,25.59
2022-10-30T13:16:56.186Z,25.62
2022-10-30T13:17:58.876Z,25.66
2022-10-30T13:19:00.704Z,25.60
2022-10-30T13:20:02.172Z,25.63
2022-10-30T13:21:20.397Z,25.66
2022-10-30T13:22:21.987Z,25.69
2022-10-30T13:23:25.856Z,25.65
2022-10-30T13:24:44.777Z,25.60
2022-10-30T13:25:56.778Z,25.59
2022-10-30T13:27:00.765Z,25.51
2022-10-30T13:28:06.900Z,25.55
2022-10-30T13:29:22.653Z,25.54
2022-10-30T13:30:25.594Z,25.59
2022-10-30T13:31:30.084Z,25.64
2022-10-30T13:32:35.473Z,25.66
2022-10-30T13:33:39.997Z,25.53
2022-10-30T13:35:00.608Z,25.58
2022-10-30T13:36:02.071Z,25.63
2022-10-30T13:37:05.738Z,25.66
2022-10-30T13:38:07.174Z,25.69
2022-10-30T13:39:11.486Z,25.75
2022-10-30T13:40:14.447Z,25.77
2022-10-30T13:41:35.033Z,25.79
2022-10-30T13:42:45.564Z,25.83
2022-10-30T13:43:47.020Z,25.87
2022-10-30T13:44:54.640Z,25.85
2022-10-30T13:46:08.094Z,25.87
2022-10-30T13:47:12.423Z,25.89
2022-10-30T13:48:13.955Z,25.91
2022-10-30T13:49:31.997Z,25.92
2022-10-30T13:50:33.412Z,25.89
2022-10-30T13:51:37.930Z,25.91
2022-10-30T13:52:40.143Z,25.89
2022-10-30T13:53:42.444Z,25.89
2022-10-30T13:54:59.380Z,25.91
2022-10-30T13:56:00.964Z,25.85
2022-10-30T13:57:08.809Z,25.85
2022-10-30T13:58:18.125Z,25.83
2022-10-30T13:59:19.633Z,25.80
2022-10-30T14:00:21.793Z,25.77
2022-10-30T14:01:28.091Z,25.77
2022-10-30T14:02:45.071Z,25.77
2022-10-30T14:03:56.716Z,25.67
2022-10-30T14:05:07.235Z,25.67
2022-10-30T14:06:08.825Z,25.67
2022-10-30T14:07:29.065Z,25.66
2022-10-30T14:08:33.447Z,25.68
2022-10-30T14:09:43.210Z,25.66
2022-10-30T14:10:48.324Z,25.59
2022-10-30T14:11:49.809Z,25.60
2022-10-30T14:12:57.518Z,25.63
2022-10-30T14:14:06.171Z,25.65
2022-10-30T14:15:11.529Z,25.62
2022-10-30T14:16:31.637Z,25.63
2022-10-30T14:17:33.137Z,25.66